sensor_id;sensor_type;location;lat;lon;timestamp;P1;durP1;ratioP1;P2;durP2;ratioP2
28455;SDS011;15682;56.742;38.866;2023-11-19T00:01:16;8.0;;;2.3;;
28455;SDS011;15682;56.742;38.866;2023-11-19T00:03:15;6.1;;;2.5;;
28455;SDS011;15682;56.742;38.866;2023-11-19T00:05:15;11.7;;;2.5;;
28455;SDS011;15682;56.742;38.866;2023-11-19T00:07:15;8.7;;;2.3;;
28455;SDS011;15682;56.742;38.866;2023-11-19T00:09:15;6.7;;;2.5;;
28455;SDS011;15682;56.742;38.866;2023-11-19T00:11:14;6.6;;;2.1;;
28455;SDS011;15682;56.742;38.866;2023-11-19T00:13:14;6.6;;;2.3;;
28455;SDS011;15682;56.742;38.866;2023-11-19T00:15:14;8.6;;;2.3;;
28455;SDS011;15682;56.742;38.866;2023-11-19T00:17:14;12.0;;;2.8;;
28455;SDS011;15682;56.742;38.866;2023-11-19T00:19:14;6.3;;;2.5;;
28455;SDS011;15682;56.742;38.866;2023-11-19T00:21:13;6.9;;;2.4;;
28455;SDS011;15682;56.742;38.866;2023-11-19T00:23:13;8.1;;;2.4;;
28455;SDS011;15682;56.742;38.866;2023-11-19T00:25:13;6.0;;;2.1;;
28455;SDS011;15682;56.742;38.866;2023-11-19T00:27:13;14.8;;;2.6;;
28455;SDS011;15682;56.742;38.866;2023-11-19T00:29:13;8.0;;;2.5;;
28455;SDS011;15682;56.742;38.866;2023-11-19T00:31:13;9.0;;;2.3;;
28455;SDS011;15682;56.742;38.866;2023-11-19T00:33:12;8.9;;;2.4;;
28455;SDS011;15682;56.742;38.866;2023-11-19T00:35:12;5.1;;;2.5;;
28455;SDS011;15682;56.742;38.866;2023-11-19T00:37:12;5.5;;;2.7;;
28455;SDS011;15682;56.742;38.866;2023-11-19T00:39:12;8.6;;;2.6;;
28455;SDS011;15682;56.742;38.866;2023-11-19T00:41:12;5.8;;;2.0;;
28455;SDS011;15682;56.742;38.866;2023-11-19T00:43:11;6.3;;;2.3;;
28455;SDS011;15682;56.742;38.866;2023-11-19T00:45:11;6.2;;;2.3;;
28455;SDS011;15682;56.742;38.866;2023-11-19T00:47:11;7.2;;;2.6;;
28455;SDS011;15682;56.742;38.866;2023-11-19T00:49:11;7.5;;;2.5;;
28455;SDS011;15682;56.742;38.866;2023-11-19T00:51:11;6.1;;;2.2;;
28455;SDS011;15682;56.742;38.866;2023-11-19T00:53:10;6.2;;;2.4;;
28455;SDS011;15682;56.742;38.866;2023-11-19T00:55:10;8.3;;;2.4;;
28455;SDS011;15682;56.742;38.866;2023-11-19T00:57:10;6.8;;;2.5;;
28455;SDS011;15682;56.742;38.866;2023-11-19T00:59:10;9.9;;;2.6;;
28455;SDS011;15682;56.742;38.866;2023-11-19T01:01:11;4.8;;;2.3;;
28455;SDS011;15682;56.742;38.866;2023-11-19T01:03:09;8.5;;;2.3;;
28455;SDS011;15682;56.742;38.866;2023-11-19T01:05:09;5.2;;;2.2;;
28455;SDS011;15682;56.742;38.866;2023-11-19T01:07:09;5.0;;;2.2;;
28455;SDS011;15682;56.742;38.866;2023-11-19T01:09:09;6.1;;;2.2;;
28455;SDS011;15682;56.742;38.866;2023-11-19T01:11:09;6.1;;;2.1;;
28455;SDS011;15682;56.742;38.866;2023-11-19T01:13:08;3.8;;;1.9;;
28455;SDS011;15682;56.742;38.866;2023-11-19T01:15:08;4.3;;;2.2;;
28455;SDS011;15682;56.742;38.866;2023-11-19T01:17:08;6.4;;;2.4;;
28455;SDS011;15682;56.742;38.866;2023-11-19T01:19:08;6.8;;;2.2;;
28455;SDS011;15682;56.742;38.866;2023-11-19T01:21:08;5.3;;;2.2;;
28455;SDS011;15682;56.742;38.866;2023-11-19T01:23:07;6.0;;;2.0;;
28455;SDS011;15682;56.742;38.866;2023-11-19T01:25:07;6.4;;;2.1;;
28455;SDS011;15682;56.742;38.866;2023-11-19T01:27:07;5.8;;;1.7;;
28455;SDS011;15682;56.742;38.866;2023-11-19T01:29:07;4.5;;;1.7;;
28455;SDS011;15682;56.742;38.866;2023-11-19T01:31:07;3.9;;;1.6;;
28455;SDS011;15682;56.742;38.866;2023-11-19T01:33:06;4.0;;;1.9;;
28455;SDS011;15682;56.742;38.866;2023-11-19T01:35:06;4.1;;;1.5;;
28455;SDS011;15682;56.742;38.866;2023-11-19T01:37:06;5.4;;;2.2;;
28455;SDS011;15682;56.742;38.866;2023-11-19T01:39:06;7.3;;;1.8;;
28455;SDS011;15682;56.742;38.866;2023-11-19T01:41:05;6.9;;;1.7;;
28455;SDS011;15682;56.742;38.866;2023-11-19T01:43:05;4.6;;;1.5;;
28455;SDS011;15682;56.742;38.866;2023-11-19T01:45:06;7.5;;;1.6;;
28455;SDS011;15682;56.742;38.866;2023-11-19T01:47:05;5.1;;;1.5;;
28455;SDS011;15682;56.742;38.866;2023-11-19T01:49:05;5.3;;;1.7;;
28455;SDS011;15682;56.742;38.866;2023-11-19T01:51:05;4.9;;;1.5;;
28455;SDS011;15682;56.742;38.866;2023-11-19T01:53:04;2.7;;;1.4;;
28455;SDS011;15682;56.742;38.866;2023-11-19T01:55:04;5.4;;;1.6;;
28455;SDS011;15682;56.742;38.866;2023-11-19T01:57:04;6.2;;;1.5;;
28455;SDS011;15682;56.742;38.866;2023-11-19T01:59:04;3.9;;;1.4;;
28455;SDS011;15682;56.742;38.866;2023-11-19T02:01:04;4.3;;;1.4;;
28455;SDS011;15682;56.742;38.866;2023-11-19T02:03:03;4.9;;;1.5;;
28455;SDS011;15682;56.742;38.866;2023-11-19T02:05:03;5.8;;;1.6;;
28455;SDS011;15682;56.742;38.866;2023-11-19T02:07:03;3.4;;;1.5;;
28455;SDS011;15682;56.742;38.866;2023-11-19T02:09:03;5.0;;;1.7;;
28455;SDS011;15682;56.742;38.866;2023-11-19T02:11:03;6.0;;;1.6;;
28455;SDS011;15682;56.742;38.866;2023-11-19T02:13:02;7.4;;;1.5;;
28455;SDS011;15682;56.742;38.866;2023-11-19T02:15:02;3.4;;;1.4;;
28455;SDS011;15682;56.742;38.866;2023-11-19T02:17:02;5.7;;;1.6;;
28455;SDS011;15682;56.742;38.866;2023-11-19T02:19:02;4.8;;;1.4;;
28455;SDS011;15682;56.742;38.866;2023-11-19T02:21:02;4.4;;;1.6;;
28455;SDS011;15682;56.742;38.866;2023-11-19T02:23:01;4.6;;;1.5;;
28455;SDS011;15682;56.742;38.866;2023-11-19T02:25:03;5.8;;;1.6;;
28455;SDS011;15682;56.742;38.866;2023-11-19T02:27:02;4.5;;;1.4;;
28455;SDS011;15682;56.742;38.866;2023-11-19T02:29:01;4.5;;;1.1;;
28455;SDS011;15682;56.742;38.866;2023-11-19T02:31:01;3.1;;;1.3;;
28455;SDS011;15682;56.742;38.866;2023-11-19T02:33:01;5.1;;;1.4;;
28455;SDS011;15682;56.742;38.866;2023-11-19T02:35:00;5.2;;;1.4;;
28455;SDS011;15682;56.742;38.866;2023-11-19T02:37:00;3.9;;;1.3;;
28455;SDS011;15682;56.742;38.866;2023-11-19T02:39:00;4.2;;;1.3;;
28455;SDS011;15682;56.742;38.866;2023-11-19T02:41:00;6.9;;;1.5;;
28455;SDS011;15682;56.742;38.866;2023-11-19T02:43:00;3.2;;;1.4;;
28455;SDS011;15682;56.742;38.866;2023-11-19T02:44:59;3.1;;;1.2;;
28455;SDS011;15682;56.742;38.866;2023-11-19T02:46:59;4.6;;;1.5;;
28455;SDS011;15682;56.742;38.866;2023-11-19T02:48:59;4.1;;;1.8;;
28455;SDS011;15682;56.742;38.866;2023-11-19T02:50:59;5.3;;;1.6;;
28455;SDS011;15682;56.742;38.866;2023-11-19T02:52:59;3.3;;;1.3;;
28455;SDS011;15682;56.742;38.866;2023-11-19T02:54:58;3.9;;;1.5;;
28455;SDS011;15682;56.742;38.866;2023-11-19T02:56:58;4.5;;;1.4;;
28455;SDS011;15682;56.742;38.866;2023-11-19T02:58:58;5.4;;;1.2;;
28455;SDS011;15682;56.742;38.866;2023-11-19T03:00:58;3.0;;;1.1;;
28455;SDS011;15682;56.742;38.866;2023-11-19T03:02:58;3.3;;;1.3;;
28455;SDS011;15682;56.742;38.866;2023-11-19T03:04:57;3.0;;;1.3;;
28455;SDS011;15682;56.742;38.866;2023-11-19T03:06:57;5.8;;;1.4;;
28455;SDS011;15682;56.742;38.866;2023-11-19T03:08:57;5.1;;;1.6;;
28455;SDS011;15682;56.742;38.866;2023-11-19T03:10:57;4.3;;;1.2;;
28455;SDS011;15682;56.742;38.866;2023-11-19T03:12:57;4.3;;;1.5;;
28455;SDS011;15682;56.742;38.866;2023-11-19T03:14:57;3.2;;;1.3;;
28455;SDS011;15682;56.742;38.866;2023-11-19T03:16:56;6.2;;;2.0;;
28455;SDS011;15682;56.742;38.866;2023-11-19T03:18:56;7.2;;;2.1;;
28455;SDS011;15682;56.742;38.866;2023-11-19T03:20:56;4.6;;;1.4;;
28455;SDS011;15682;56.742;38.866;2023-11-19T03:22:56;4.5;;;1.4;;
28455;SDS011;15682;56.742;38.866;2023-11-19T03:24:56;20.0;;;1.7;;
28455;SDS011;15682;56.742;38.866;2023-11-19T03:26:55;4.5;;;1.6;;
28455;SDS011;15682;56.742;38.866;2023-11-19T03:28:55;5.9;;;1.5;;
28455;SDS011;15682;56.742;38.866;2023-11-19T03:30:55;3.9;;;1.8;;
28455;SDS011;15682;56.742;38.866;2023-11-19T03:32:55;4.6;;;1.6;;
28455;SDS011;15682;56.742;38.866;2023-11-19T03:34:55;6.2;;;2.0;;
28455;SDS011;15682;56.742;38.866;2023-11-19T03:36:55;4.7;;;1.8;;
28455;SDS011;15682;56.742;38.866;2023-11-19T03:38:54;4.9;;;1.7;;
28455;SDS011;15682;56.742;38.866;2023-11-19T03:40:54;5.6;;;1.8;;
28455;SDS011;15682;56.742;38.866;2023-11-19T03:42:55;6.9;;;1.6;;
28455;SDS011;15682;56.742;38.866;2023-11-19T03:44:54;8.6;;;2.0;;
28455;SDS011;15682;56.742;38.866;2023-11-19T03:46:54;6.1;;;2.3;;
28455;SDS011;15682;56.742;38.866;2023-11-19T03:48:53;8.3;;;2.9;;
28455;SDS011;15682;56.742;38.866;2023-11-19T03:50:53;11.3;;;2.5;;
28455;SDS011;15682;56.742;38.866;2023-11-19T03:52:53;5.1;;;2.2;;
28455;SDS011;15682;56.742;38.866;2023-11-19T03:54:53;6.2;;;2.7;;
28455;SDS011;15682;56.742;38.866;2023-11-19T03:56:53;8.4;;;2.4;;
28455;SDS011;15682;56.742;38.866;2023-11-19T03:58:53;6.0;;;2.5;;
28455;SDS011;15682;56.742;38.866;2023-11-19T04:00:52;7.9;;;2.5;;
28455;SDS011;15682;56.742;38.866;2023-11-19T04:02:52;5.7;;;2.4;;
28455;SDS011;15682;56.742;38.866;2023-11-19T04:04:52;8.9;;;2.4;;
28455;SDS011;15682;56.742;38.866;2023-11-19T04:06:52;7.3;;;2.4;;
28455;SDS011;15682;56.742;38.866;2023-11-19T04:08:52;14.5;;;2.4;;
28455;SDS011;15682;56.742;38.866;2023-11-19T04:10:51;7.5;;;2.2;;
28455;SDS011;15682;56.742;38.866;2023-11-19T04:12:51;5.1;;;2.3;;
28455;SDS011;15682;56.742;38.866;2023-11-19T04:14:51;10.8;;;2.6;;
28455;SDS011;15682;56.742;38.866;2023-11-19T04:16:51;6.3;;;2.3;;
28455;SDS011;15682;56.742;38.866;2023-11-19T04:18:51;8.0;;;2.6;;
28455;SDS011;15682;56.742;38.866;2023-11-19T04:20:50;6.2;;;2.5;;
28455;SDS011;15682;56.742;38.866;2023-11-19T04:22:50;6.5;;;2.4;;
28455;SDS011;15682;56.742;38.866;2023-11-19T04:24:50;5.3;;;2.2;;
28455;SDS011;15682;56.742;38.866;2023-11-19T04:26:50;6.9;;;2.3;;
28455;SDS011;15682;56.742;38.866;2023-11-19T04:28:50;6.2;;;2.7;;
28455;SDS011;15682;56.742;38.866;2023-11-19T04:30:50;7.8;;;2.2;;
28455;SDS011;15682;56.742;38.866;2023-11-19T04:32:49;7.9;;;2.8;;
28455;SDS011;15682;56.742;38.866;2023-11-19T04:34:49;9.3;;;2.6;;
28455;SDS011;15682;56.742;38.866;2023-11-19T04:36:49;5.6;;;2.4;;
28455;SDS011;15682;56.742;38.866;2023-11-19T04:38:49;4.8;;;2.5;;
28455;SDS011;15682;56.742;38.866;2023-11-19T04:40:48;6.9;;;2.6;;
28455;SDS011;15682;56.742;38.866;2023-11-19T04:42:50;5.6;;;2.5;;
28455;SDS011;15682;56.742;38.866;2023-11-19T04:44:48;9.5;;;3.0;;
28455;SDS011;15682;56.742;38.866;2023-11-19T04:46:48;19.1;;;3.3;;
28455;SDS011;15682;56.742;38.866;2023-11-19T04:48:48;9.9;;;2.4;;
28455;SDS011;15682;56.742;38.866;2023-11-19T04:50:47;6.5;;;2.5;;
28455;SDS011;15682;56.742;38.866;2023-11-19T04:52:47;7.7;;;3.0;;
28455;SDS011;15682;56.742;38.866;2023-11-19T04:54:47;7.2;;;2.9;;
28455;SDS011;15682;56.742;38.866;2023-11-19T04:56:47;9.2;;;3.3;;
28455;SDS011;15682;56.742;38.866;2023-11-19T04:58:47;7.5;;;3.2;;
28455;SDS011;15682;56.742;38.866;2023-11-19T05:00:46;6.0;;;3.0;;
28455;SDS011;15682;56.742;38.866;2023-11-19T05:02:46;9.0;;;3.0;;
28455;SDS011;15682;56.742;38.866;2023-11-19T05:04:46;8.8;;;3.1;;
28455;SDS011;15682;56.742;38.866;2023-11-19T05:06:46;8.6;;;3.3;;
28455;SDS011;15682;56.742;38.866;2023-11-19T05:08:46;7.1;;;3.1;;
28455;SDS011;15682;56.742;38.866;2023-11-19T05:10:45;9.4;;;3.2;;
28455;SDS011;15682;56.742;38.866;2023-11-19T05:12:45;8.0;;;3.2;;
28455;SDS011;15682;56.742;38.866;2023-11-19T05:14:45;10.2;;;3.5;;
28455;SDS011;15682;56.742;38.866;2023-11-19T05:16:45;16.1;;;3.0;;
28455;SDS011;15682;56.742;38.866;2023-11-19T05:18:45;8.8;;;3.1;;
28455;SDS011;15682;56.742;38.866;2023-11-19T05:20:44;10.0;;;3.3;;
28455;SDS011;15682;56.742;38.866;2023-11-19T05:22:44;10.1;;;3.6;;
28455;SDS011;15682;56.742;38.866;2023-11-19T05:24:44;15.3;;;4.3;;
28455;SDS011;15682;56.742;38.866;2023-11-19T05:26:44;10.9;;;4.0;;
28455;SDS011;15682;56.742;38.866;2023-11-19T05:28:44;8.8;;;3.5;;
28455;SDS011;15682;56.742;38.866;2023-11-19T05:30:43;8.8;;;4.0;;
28455;SDS011;15682;56.742;38.866;2023-11-19T05:32:43;10.7;;;4.1;;
28455;SDS011;15682;56.742;38.866;2023-11-19T05:34:43;12.0;;;4.9;;
28455;SDS011;15682;56.742;38.866;2023-11-19T05:36:43;15.4;;;5.6;;
28455;SDS011;15682;56.742;38.866;2023-11-19T05:38:43;12.2;;;4.0;;
28455;SDS011;15682;56.742;38.866;2023-11-19T05:40:42;11.1;;;3.8;;
28455;SDS011;15682;56.742;38.866;2023-11-19T05:42:42;13.2;;;4.7;;
28455;SDS011;15682;56.742;38.866;2023-11-19T05:44:42;12.2;;;4.7;;
28455;SDS011;15682;56.742;38.866;2023-11-19T05:46:42;11.8;;;4.4;;
28455;SDS011;15682;56.742;38.866;2023-11-19T05:48:41;13.2;;;4.2;;
28455;SDS011;15682;56.742;38.866;2023-11-19T05:50:41;12.8;;;4.8;;
28455;SDS011;15682;56.742;38.866;2023-11-19T05:52:41;9.7;;;4.6;;
28455;SDS011;15682;56.742;38.866;2023-11-19T05:54:41;11.1;;;4.5;;
28455;SDS011;15682;56.742;38.866;2023-11-19T05:56:41;16.2;;;5.3;;
28455;SDS011;15682;56.742;38.866;2023-11-19T05:58:41;11.2;;;4.5;;
28455;SDS011;15682;56.742;38.866;2023-11-19T06:00:40;13.0;;;3.5;;
28455;SDS011;15682;56.742;38.866;2023-11-19T06:02:40;13.8;;;4.9;;
28455;SDS011;15682;56.742;38.866;2023-11-19T06:04:40;24.6;;;9.8;;
28455;SDS011;15682;56.742;38.866;2023-11-19T06:06:40;16.4;;;5.0;;
28455;SDS011;15682;56.742;38.866;2023-11-19T06:08:39;10.0;;;4.5;;
28455;SDS011;15682;56.742;38.866;2023-11-19T06:10:39;11.0;;;4.7;;
28455;SDS011;15682;56.742;38.866;2023-11-19T06:12:39;23.0;;;4.4;;
28455;SDS011;15682;56.742;38.866;2023-11-19T06:14:39;16.0;;;5.0;;
28455;SDS011;15682;56.742;38.866;2023-11-19T06:16:39;14.2;;;5.7;;
28455;SDS011;15682;56.742;38.866;2023-11-19T06:18:39;14.4;;;5.1;;
28455;SDS011;15682;56.742;38.866;2023-11-19T06:20:38;19.5;;;6.3;;
28455;SDS011;15682;56.742;38.866;2023-11-19T06:22:38;13.8;;;5.3;;
28455;SDS011;15682;56.742;38.866;2023-11-19T06:24:38;10.4;;;4.4;;
28455;SDS011;15682;56.742;38.866;2023-11-19T06:26:38;14.8;;;4.1;;
28455;SDS011;15682;56.742;38.866;2023-11-19T06:28:37;10.3;;;3.6;;
28455;SDS011;15682;56.742;38.866;2023-11-19T06:30:37;9.3;;;3.4;;
28455;SDS011;15682;56.742;38.866;2023-11-19T06:32:37;9.4;;;3.6;;
28455;SDS011;15682;56.742;38.866;2023-11-19T06:34:37;12.2;;;4.4;;
28455;SDS011;15682;56.742;38.866;2023-11-19T06:36:37;10.9;;;3.1;;
28455;SDS011;15682;56.742;38.866;2023-11-19T06:38:37;10.4;;;3.6;;
28455;SDS011;15682;56.742;38.866;2023-11-19T06:40:36;8.9;;;2.8;;
28455;SDS011;15682;56.742;38.866;2023-11-19T06:42:36;12.3;;;3.5;;
28455;SDS011;15682;56.742;38.866;2023-11-19T06:44:36;12.1;;;3.3;;
28455;SDS011;15682;56.742;38.866;2023-11-19T06:46:36;11.4;;;3.6;;
28455;SDS011;15682;56.742;38.866;2023-11-19T06:48:36;9.0;;;3.5;;
28455;SDS011;15682;56.742;38.866;2023-11-19T06:50:35;9.4;;;3.3;;
28455;SDS011;15682;56.742;38.866;2023-11-19T06:52:35;10.4;;;3.3;;
28455;SDS011;15682;56.742;38.866;2023-11-19T06:54:35;13.2;;;4.0;;
28455;SDS011;15682;56.742;38.866;2023-11-19T06:56:35;7.0;;;3.0;;
28455;SDS011;15682;56.742;38.866;2023-11-19T06:58:35;10.0;;;3.4;;
28455;SDS011;15682;56.742;38.866;2023-11-19T07:00:34;21.1;;;3.9;;
28455;SDS011;15682;56.742;38.866;2023-11-19T07:02:34;11.4;;;3.8;;
28455;SDS011;15682;56.742;38.866;2023-11-19T07:04:34;10.1;;;4.0;;
28455;SDS011;15682;56.742;38.866;2023-11-19T07:06:34;8.9;;;3.4;;
28455;SDS011;15682;56.742;38.866;2023-11-19T07:08:34;8.3;;;3.2;;
28455;SDS011;15682;56.742;38.866;2023-11-19T07:10:34;24.6;;;4.3;;
28455;SDS011;15682;56.742;38.866;2023-11-19T07:12:33;15.5;;;4.8;;
28455;SDS011;15682;56.742;38.866;2023-11-19T07:14:33;15.8;;;4.5;;
28455;SDS011;15682;56.742;38.866;2023-11-19T07:16:33;14.7;;;4.4;;
28455;SDS011;15682;56.742;38.866;2023-11-19T07:18:33;13.6;;;4.8;;
28455;SDS011;15682;56.742;38.866;2023-11-19T07:20:33;15.2;;;5.7;;
28455;SDS011;15682;56.742;38.866;2023-11-19T07:22:33;14.1;;;4.5;;
28455;SDS011;15682;56.742;38.866;2023-11-19T07:24:32;11.6;;;4.1;;
28455;SDS011;15682;56.742;38.866;2023-11-19T07:26:32;15.8;;;4.1;;
28455;SDS011;15682;56.742;38.866;2023-11-19T07:28:32;16.5;;;4.5;;
28455;SDS011;15682;56.742;38.866;2023-11-19T07:30:32;14.2;;;4.7;;
28455;SDS011;15682;56.742;38.866;2023-11-19T07:32:32;12.6;;;4.4;;
28455;SDS011;15682;56.742;38.866;2023-11-19T07:34:32;12.7;;;4.2;;
28455;SDS011;15682;56.742;38.866;2023-11-19T07:36:32;13.1;;;4.4;;
28455;SDS011;15682;56.742;38.866;2023-11-19T07:38:31;16.4;;;4.2;;
28455;SDS011;15682;56.742;38.866;2023-11-19T07:40:31;16.7;;;4.8;;
28455;SDS011;15682;56.742;38.866;2023-11-19T07:42:31;11.5;;;4.9;;
28455;SDS011;15682;56.742;38.866;2023-11-19T07:44:31;16.5;;;4.8;;
28455;SDS011;15682;56.742;38.866;2023-11-19T07:46:31;13.0;;;4.5;;
28455;SDS011;15682;56.742;38.866;2023-11-19T07:48:31;44.3;;;9.2;;
28455;SDS011;15682;56.742;38.866;2023-11-19T07:50:30;17.7;;;4.2;;
28455;SDS011;15682;56.742;38.866;2023-11-19T07:52:30;24.1;;;4.7;;
28455;SDS011;15682;56.742;38.866;2023-11-19T07:54:30;11.2;;;3.9;;
28455;SDS011;15682;56.742;38.866;2023-11-19T07:56:30;20.7;;;4.3;;
28455;SDS011;15682;56.742;38.866;2023-11-19T07:58:30;23.4;;;4.4;;
28455;SDS011;15682;56.742;38.866;2023-11-19T08:00:30;24.6;;;5.8;;
28455;SDS011;15682;56.742;38.866;2023-11-19T08:02:29;19.3;;;4.9;;
28455;SDS011;15682;56.742;38.866;2023-11-19T08:04:29;19.0;;;4.6;;
28455;SDS011;15682;56.742;38.866;2023-11-19T08:06:29;23.6;;;5.0;;
28455;SDS011;15682;56.742;38.866;2023-11-19T08:08:29;18.2;;;5.2;;
28455;SDS011;15682;56.742;38.866;2023-11-19T08:10:29;23.7;;;6.4;;
28455;SDS011;15682;56.742;38.866;2023-11-19T08:12:29;22.4;;;7.8;;
28455;SDS011;15682;56.742;38.866;2023-11-19T08:14:29;23.5;;;7.8;;
28455;SDS011;15682;56.742;38.866;2023-11-19T08:16:28;20.9;;;8.2;;
28455;SDS011;15682;56.742;38.866;2023-11-19T08:18:28;25.0;;;10.0;;
28455;SDS011;15682;56.742;38.866;2023-11-19T08:20:28;29.8;;;6.4;;
28455;SDS011;15682;56.742;38.866;2023-11-19T08:22:28;61.9;;;8.6;;
28455;SDS011;15682;56.742;38.866;2023-11-19T08:24:28;16.2;;;5.4;;
28455;SDS011;15682;56.742;38.866;2023-11-19T08:26:28;16.4;;;5.6;;
28455;SDS011;15682;56.742;38.866;2023-11-19T08:28:28;13.8;;;4.8;;
28455;SDS011;15682;56.742;38.866;2023-11-19T08:30:27;15.4;;;5.5;;
28455;SDS011;15682;56.742;38.866;2023-11-19T08:32:27;17.2;;;5.7;;
28455;SDS011;15682;56.742;38.866;2023-11-19T08:34:27;23.2;;;6.2;;
28455;SDS011;15682;56.742;38.866;2023-11-19T08:36:27;16.4;;;6.4;;
28455;SDS011;15682;56.742;38.866;2023-11-19T08:38:27;20.7;;;5.7;;
28455;SDS011;15682;56.742;38.866;2023-11-19T08:40:27;18.7;;;5.4;;
28455;SDS011;15682;56.742;38.866;2023-11-19T08:42:26;17.9;;;5.4;;
28455;SDS011;15682;56.742;38.866;2023-11-19T08:44:26;16.3;;;4.9;;
28455;SDS011;15682;56.742;38.866;2023-11-19T08:46:26;16.2;;;5.7;;
28455;SDS011;15682;56.742;38.866;2023-11-19T08:48:26;34.6;;;13.0;;
28455;SDS011;15682;56.742;38.866;2023-11-19T08:50:26;30.4;;;5.8;;
28455;SDS011;15682;56.742;38.866;2023-11-19T08:52:26;22.9;;;5.6;;
28455;SDS011;15682;56.742;38.866;2023-11-19T08:54:26;22.0;;;5.4;;
28455;SDS011;15682;56.742;38.866;2023-11-19T08:56:26;14.1;;;5.4;;
28455;SDS011;15682;56.742;38.866;2023-11-19T08:58:25;17.9;;;5.3;;
28455;SDS011;15682;56.742;38.866;2023-11-19T09:00:25;20.9;;;6.7;;
28455;SDS011;15682;56.742;38.866;2023-11-19T09:02:25;22.1;;;7.3;;
28455;SDS011;15682;56.742;38.866;2023-11-19T09:04:25;60.4;;;21.2;;
28455;SDS011;15682;56.742;38.866;2023-11-19T09:06:25;204.5;;;66.2;;
28455;SDS011;15682;56.742;38.866;2023-11-19T09:08:25;121.7;;;37.4;;
28455;SDS011;15682;56.742;38.866;2023-11-19T09:10:25;45.4;;;15.2;;
28455;SDS011;15682;56.742;38.866;2023-11-19T09:12:24;29.0;;;11.1;;
28455;SDS011;15682;56.742;38.866;2023-11-19T09:14:24;33.2;;;11.2;;
28455;SDS011;15682;56.742;38.866;2023-11-19T09:16:24;51.3;;;21.8;;
28455;SDS011;15682;56.742;38.866;2023-11-19T09:18:24;51.1;;;20.7;;
28455;SDS011;15682;56.742;38.866;2023-11-19T09:20:24;74.0;;;31.8;;
28455;SDS011;15682;56.742;38.866;2023-11-19T09:22:24;138.4;;;74.9;;
28455;SDS011;15682;56.742;38.866;2023-11-19T09:24:23;31.9;;;12.4;;
28455;SDS011;15682;56.742;38.866;2023-11-19T09:26:23;37.2;;;11.1;;
28455;SDS011;15682;56.742;38.866;2023-11-19T09:28:23;27.5;;;12.3;;
28455;SDS011;15682;56.742;38.866;2023-11-19T09:30:23;26.9;;;14.6;;
28455;SDS011;15682;56.742;38.866;2023-11-19T09:32:23;29.1;;;11.4;;
28455;SDS011;15682;56.742;38.866;2023-11-19T09:34:23;29.0;;;9.8;;
28455;SDS011;15682;56.742;38.866;2023-11-19T09:36:23;21.8;;;8.1;;
28455;SDS011;15682;56.742;38.866;2023-11-19T09:38:22;37.6;;;10.1;;
28455;SDS011;15682;56.742;38.866;2023-11-19T09:40:23;30.1;;;9.7;;
28455;SDS011;15682;56.742;38.866;2023-11-19T09:42:23;31.5;;;11.2;;
28455;SDS011;15682;56.742;38.866;2023-11-19T09:44:22;32.4;;;10.8;;
28455;SDS011;15682;56.742;38.866;2023-11-19T09:46:22;29.6;;;9.8;;
28455;SDS011;15682;56.742;38.866;2023-11-19T09:48:22;28.7;;;10.4;;
28455;SDS011;15682;56.742;38.866;2023-11-19T09:50:21;26.6;;;10.3;;
28455;SDS011;15682;56.742;38.866;2023-11-19T09:52:21;88.9;;;14.8;;
28455;SDS011;15682;56.742;38.866;2023-11-19T09:54:21;28.9;;;10.7;;
28455;SDS011;15682;56.742;38.866;2023-11-19T09:56:21;26.7;;;9.0;;
28455;SDS011;15682;56.742;38.866;2023-11-19T09:58:21;31.8;;;10.7;;
28455;SDS011;15682;56.742;38.866;2023-11-19T10:00:21;29.9;;;9.1;;
28455;SDS011;15682;56.742;38.866;2023-11-19T10:02:21;42.3;;;10.5;;
28455;SDS011;15682;56.742;38.866;2023-11-19T10:04:20;27.5;;;8.9;;
28455;SDS011;15682;56.742;38.866;2023-11-19T10:06:20;34.3;;;9.9;;
28455;SDS011;15682;56.742;38.866;2023-11-19T10:08:20;26.6;;;9.8;;
28455;SDS011;15682;56.742;38.866;2023-11-19T10:10:20;23.6;;;9.0;;
28455;SDS011;15682;56.742;38.866;2023-11-19T10:12:20;23.2;;;8.5;;
28455;SDS011;15682;56.742;38.866;2023-11-19T10:14:20;22.0;;;8.9;;
28455;SDS011;15682;56.742;38.866;2023-11-19T10:16:20;26.3;;;8.0;;
28455;SDS011;15682;56.742;38.866;2023-11-19T10:18:23;33.5;;;8.4;;
28455;SDS011;15682;56.742;38.866;2023-11-19T10:20:19;24.3;;;8.7;;
28455;SDS011;15682;56.742;38.866;2023-11-19T10:22:19;24.4;;;9.2;;
28455;SDS011;15682;56.742;38.866;2023-11-19T10:24:26;29.1;;;8.1;;
28455;SDS011;15682;56.742;38.866;2023-11-19T10:26:19;26.4;;;8.5;;
28455;SDS011;15682;56.742;38.866;2023-11-19T10:28:19;25.6;;;8.2;;
28455;SDS011;15682;56.742;38.866;2023-11-19T10:30:20;21.3;;;8.5;;
28455;SDS011;15682;56.742;38.866;2023-11-19T10:32:18;24.0;;;8.6;;
28455;SDS011;15682;56.742;38.866;2023-11-19T10:34:24;20.6;;;8.4;;
28455;SDS011;15682;56.742;38.866;2023-11-19T10:36:18;23.4;;;8.5;;
28455;SDS011;15682;56.742;38.866;2023-11-19T10:38:18;19.8;;;8.2;;
28455;SDS011;15682;56.742;38.866;2023-11-19T10:40:18;23.2;;;8.9;;
28455;SDS011;15682;56.742;38.866;2023-11-19T10:42:18;19.9;;;8.7;;
28455;SDS011;15682;56.742;38.866;2023-11-19T10:46:17;24.5;;;10.3;;
28455;SDS011;15682;56.742;38.866;2023-11-19T10:48:17;27.3;;;9.3;;
28455;SDS011;15682;56.742;38.866;2023-11-19T10:50:17;22.3;;;8.5;;
28455;SDS011;15682;56.742;38.866;2023-11-19T10:52:18;25.9;;;8.8;;
28455;SDS011;15682;56.742;38.866;2023-11-19T10:54:18;32.1;;;9.3;;
28455;SDS011;15682;56.742;38.866;2023-11-19T10:56:16;24.8;;;9.7;;
28455;SDS011;15682;56.742;38.866;2023-11-19T10:58:16;27.2;;;10.9;;
28455;SDS011;15682;56.742;38.866;2023-11-19T11:00:16;30.7;;;9.5;;
28455;SDS011;15682;56.742;38.866;2023-11-19T11:02:16;32.7;;;10.6;;
28455;SDS011;15682;56.742;38.866;2023-11-19T11:04:23;25.7;;;9.8;;
28455;SDS011;15682;56.742;38.866;2023-11-19T11:06:15;29.1;;;10.6;;
28455;SDS011;15682;56.742;38.866;2023-11-19T11:08:15;25.2;;;9.6;;
28455;SDS011;15682;56.742;38.866;2023-11-19T11:10:16;29.2;;;10.1;;
28455;SDS011;15682;56.742;38.866;2023-11-19T11:12:15;22.8;;;9.9;;
28455;SDS011;15682;56.742;38.866;2023-11-19T11:14:15;31.6;;;9.9;;
28455;SDS011;15682;56.742;38.866;2023-11-19T11:16:15;23.6;;;10.0;;
28455;SDS011;15682;56.742;38.866;2023-11-19T11:18:14;27.6;;;10.4;;
28455;SDS011;15682;56.742;38.866;2023-11-19T11:20:14;24.8;;;9.7;;
28455;SDS011;15682;56.742;38.866;2023-11-19T11:22:14;49.2;;;11.9;;
28455;SDS011;15682;56.742;38.866;2023-11-19T11:24:20;33.6;;;10.8;;
28455;SDS011;15682;56.742;38.866;2023-11-19T11:26:19;25.8;;;10.1;;
28455;SDS011;15682;56.742;38.866;2023-11-19T11:28:16;23.2;;;10.6;;
28455;SDS011;15682;56.742;38.866;2023-11-19T11:30:17;36.2;;;10.6;;
28455;SDS011;15682;56.742;38.866;2023-11-19T11:32:16;36.5;;;10.9;;
28455;SDS011;15682;56.742;38.866;2023-11-19T11:34:18;43.5;;;10.9;;
28455;SDS011;15682;56.742;38.866;2023-11-19T11:36:13;27.6;;;9.9;;
28455;SDS011;15682;56.742;38.866;2023-11-19T11:38:13;32.3;;;10.6;;
28455;SDS011;15682;56.742;38.866;2023-11-19T11:40:14;31.7;;;10.7;;
28455;SDS011;15682;56.742;38.866;2023-11-19T11:44:12;27.8;;;10.7;;
28455;SDS011;15682;56.742;38.866;2023-11-19T11:48:12;27.2;;;10.3;;
28455;SDS011;15682;56.742;38.866;2023-11-19T11:50:12;28.0;;;10.5;;
28455;SDS011;15682;56.742;38.866;2023-11-19T11:52:11;28.5;;;10.7;;
28455;SDS011;15682;56.742;38.866;2023-11-19T11:54:11;33.6;;;11.7;;
28455;SDS011;15682;56.742;38.866;2023-11-19T11:56:11;34.3;;;10.8;;
28455;SDS011;15682;56.742;38.866;2023-11-19T11:58:11;31.2;;;10.5;;
28455;SDS011;15682;56.742;38.866;2023-11-19T12:00:11;33.6;;;11.7;;
28455;SDS011;15682;56.742;38.866;2023-11-19T12:02:11;33.6;;;10.6;;
28455;SDS011;15682;56.742;38.866;2023-11-19T12:04:10;27.2;;;10.9;;
28455;SDS011;15682;56.742;38.866;2023-11-19T12:06:10;35.3;;;11.8;;
28455;SDS011;15682;56.742;38.866;2023-11-19T12:08:10;25.8;;;11.4;;
28455;SDS011;15682;56.742;38.866;2023-11-19T12:10:10;25.4;;;11.0;;